sensor_id;sensor_type;location;lat;lon;timestamp;pressure;altitude;pressure_sealevel;temperature;humidity
44079;BME280;29744;49.078;12.878;2023-05-14T00:04:33;96457.72;;;15.14;40.98
44079;BME280;29744;49.078;12.878;2023-05-14T00:09:34;96449.59;;;15.14;40.42
44079;BME280;29744;49.078;12.878;2023-05-14T00:14:35;96445.31;;;15.13;40.79
44079;BME280;29744;49.078;12.878;2023-05-14T00:19:35;96442.63;;;15.13;40.68
44079;BME280;29744;49.078;12.878;2023-05-14T00:24:35;96433.72;;;15.12;41.01
44079;BME280;29744;49.078;12.878;2023-05-14T00:29:36;96433.72;;;15.12;40.94
44079;BME280;29744;49.078;12.878;2023-05-14T00:34:36;96432.94;;;15.12;40.67
44079;BME280;29744;49.078;12.878;2023-05-14T00:39:36;96425.94;;;15.11;40.90
44079;BME280;29744;49.078;12.878;2023-05-14T00:44:36;96437.53;;;15.11;40.43
44079;BME280;29744;49.078;12.878;2023-05-14T00:49:37;96434.84;;;15.11;40.93
44079;BME280;29744;49.078;12.878;2023-05-14T00:54:39;96435.16;;;15.10;40.76
44079;BME280;29744;49.078;12.878;2023-05-14T00:59:40;96446.78;;;15.10;40.94
44079;BME280;29744;49.078;12.878;2023-05-14T01:04:41;96439.47;;;15.11;40.67
44079;BME280;29744;49.078;12.878;2023-05-14T01:09:58;96440.56;;;15.10;40.88
44079;BME280;29744;49.078;12.878;2023-05-14T01:15:09;96444.41;;;15.09;40.39
44079;BME280;29744;49.078;12.878;2023-05-14T01:20:10;96436.28;;;15.09;41.05
44079;BME280;29744;49.078;12.878;2023-05-14T01:25:10;96432.00;;;15.08;40.65
44079;BME280;29744;49.078;12.878;2023-05-14T01:35:30;96429.31;;;15.08;40.71
44079;BME280;29744;49.078;12.878;2023-05-14T01:40:32;96426.59;;;15.08;40.57
44079;BME280;29744;49.078;12.878;2023-05-14T01:45:34;96430.09;;;15.08;40.98
44079;BME280;29744;49.078;12.878;2023-05-14T01:50:34;96420.75;;;15.06;40.44
44079;BME280;29744;49.078;12.878;2023-05-14T01:55:34;96419.63;;;15.07;41.02
44079;BME280;29744;49.078;12.878;2023-05-14T02:00:35;96411.53;;;15.07;40.55
44079;BME280;29744;49.078;12.878;2023-05-14T02:05:35;96410.72;;;15.06;40.58
44079;BME280;29744;49.078;12.878;2023-05-14T02:10:35;96414.22;;;15.07;40.94
44079;BME280;29744;49.078;12.878;2023-05-14T02:15:36;96410.72;;;15.06;40.54
44079;BME280;29744;49.078;12.878;2023-05-14T02:20:37;96408.03;;;15.06;40.52
44079;BME280;29744;49.078;12.878;2023-05-14T02:25:37;96401.84;;;15.06;40.61
44079;BME280;29744;49.078;12.878;2023-05-14T02:30:37;96391.34;;;15.04;40.95
44079;BME280;29744;49.078;12.878;2023-05-14T02:35:38;96403.75;;;15.05;40.90
44079;BME280;29744;49.078;12.878;2023-05-14T02:40:38;96396.44;;;15.06;40.45
44079;BME280;29744;49.078;12.878;2023-05-14T02:45:41;96394.06;;;15.04;40.70
44079;BME280;29744;49.078;12.878;2023-05-14T02:50:41;96380.56;;;15.04;40.59
44079;BME280;29744;49.078;12.878;2023-05-14T02:55:42;96382.94;;;15.06;40.65
44079;BME280;29744;49.078;12.878;2023-05-14T03:00:42;96386.75;;;15.05;40.64
44079;BME280;29744;49.078;12.878;2023-05-14T03:05:42;96380.56;;;15.04;40.92
44079;BME280;29744;49.078;12.878;2023-05-14T03:10:43;96385.97;;;15.04;40.64
44079;BME280;29744;49.078;12.878;2023-05-14T03:15:43;96374.38;;;15.04;40.73
44079;BME280;29744;49.078;12.878;2023-05-14T03:20:43;96380.88;;;15.03;40.71
44079;BME280;29744;49.078;12.878;2023-05-14T03:25:43;96377.38;;;15.02;40.59
44079;BME280;29744;49.078;12.878;2023-05-14T03:30:44;96382.78;;;15.02;40.77
44079;BME280;29744;49.078;12.878;2023-05-14T03:35:44;96380.38;;;15.01;40.66
44079;BME280;29744;49.078;12.878;2023-05-14T03:40:45;96376.56;;;15.02;40.94
44079;BME280;29744;49.078;12.878;2023-05-14T03:45:45;96374.69;;;15.02;40.46
44079;BME280;29744;49.078;12.878;2023-05-14T03:50:46;96374.69;;;15.02;40.54
44079;BME280;29744;49.078;12.878;2023-05-14T03:55:46;96373.88;;;15.02;40.61
44079;BME280;29744;49.078;12.878;2023-05-14T04:00:46;96379.28;;;15.02;40.43
44079;BME280;29744;49.078;12.878;2023-05-14T04:05:47;96374.69;;;15.02;40.85
44079;BME280;29744;49.078;12.878;2023-05-14T04:10:47;96375.47;;;15.03;40.40
44079;BME280;29744;49.078;12.878;2023-05-14T04:15:47;96372.00;;;15.02;40.94
44079;BME280;29744;49.078;12.878;2023-05-14T04:20:48;96370.88;;;15.03;40.63
44079;BME280;29744;49.078;12.878;2023-05-14T04:25:48;96375.16;;;15.04;40.89
44079;BME280;29744;49.078;12.878;2023-05-14T04:30:48;96368.97;;;15.04;40.46
44079;BME280;29744;49.078;12.878;2023-05-14T04:35:49;96373.25;;;15.05;40.57
44079;BME280;29744;49.078;12.878;2023-05-14T04:40:49;96362.44;;;15.05;40.59
44079;BME280;29744;49.078;12.878;2023-05-14T04:45:49;96370.53;;;15.05;40.57
44079;BME280;29744;49.078;12.878;2023-05-14T04:50:51;96366.72;;;15.06;40.68
44079;BME280;29744;49.078;12.878;2023-05-14T04:55:52;96366.72;;;15.06;40.83
44079;BME280;29744;49.078;12.878;2023-05-14T05:00:53;96371.81;;;15.07;40.84
44079;BME280;29744;49.078;12.878;2023-05-14T05:05:53;96370.34;;;15.10;40.73
44079;BME280;29744;49.078;12.878;2023-05-14T05:10:53;96366.53;;;15.11;40.62
44079;BME280;29744;49.078;12.878;2023-05-14T05:15:53;96370.47;;;15.13;40.51
44079;BME280;29744;49.078;12.878;2023-05-14T05:20:54;96366.66;;;15.14;40.33
44079;BME280;29744;49.078;12.878;2023-05-14T05:25:55;96359.81;;;15.17;40.31
44079;BME280;29744;49.078;12.878;2023-05-14T05:30:55;96353.63;;;15.17;40.42
44079;BME280;29744;49.078;12.878;2023-05-14T05:35:55;96355.66;;;15.20;40.54
44079;BME280;29744;49.078;12.878;2023-05-14T05:40:56;96337.34;;;15.25;40.19
44079;BME280;29744;49.078;12.878;2023-05-14T05:45:56;96343.34;;;15.31;40.71
44079;BME280;29744;49.078;12.878;2023-05-14T05:50:56;96338.53;;;15.36;40.54
44079;BME280;29744;49.078;12.878;2023-05-14T05:55:57;96332.44;;;15.39;40.74
44079;BME280;29744;49.078;12.878;2023-05-14T06:00:57;96337.66;;;15.44;40.76
44079;BME280;29744;49.078;12.878;2023-05-14T06:05:58;96340.94;;;15.50;40.24
44079;BME280;29744;49.078;12.878;2023-05-14T06:10:58;96334.88;;;15.53;40.39
44079;BME280;29744;49.078;12.878;2023-05-14T06:15:58;96342.00;;;15.58;40.04
44079;BME280;29744;49.078;12.878;2023-05-14T06:20:59;96344.03;;;15.61;40.23
44079;BME280;29744;49.078;12.878;2023-05-14T06:25:59;96340.66;;;15.64;40.06
44079;BME280;29744;49.078;12.878;2023-05-14T06:30:59;96337.63;;;15.65;40.19
44079;BME280;29744;49.078;12.878;2023-05-14T06:36:03;96336.16;;;15.68;40.26
44079;BME280;29744;49.078;12.878;2023-05-14T06:41:04;96338.19;;;15.71;40.21
44079;BME280;29744;49.078;12.878;2023-05-14T06:46:04;96328.97;;;15.72;40.21
44079;BME280;29744;49.078;12.878;2023-05-14T06:51:04;96332.91;;;15.74;39.93
44079;BME280;29744;49.078;12.878;2023-05-14T06:56:05;96334.97;;;15.77;40.35
44079;BME280;29744;49.078;12.878;2023-05-14T07:01:05;96330.34;;;15.78;40.12
44079;BME280;29744;49.078;12.878;2023-05-14T07:06:06;96327.63;;;15.78;39.25
44079;BME280;29744;49.078;12.878;2023-05-14T07:11:06;96324.81;;;15.74;39.54
44079;BME280;29744;49.078;12.878;2023-05-14T07:16:07;96322.91;;;15.75;39.82
44079;BME280;29744;49.078;12.878;2023-05-14T07:21:10;96324.03;;;15.74;39.30
44079;BME280;29744;49.078;12.878;2023-05-14T07:26:11;96320.19;;;15.75;39.39
44079;BME280;29744;49.078;12.878;2023-05-14T07:31:11;96309.38;;;15.75;39.38
44079;BME280;29744;49.078;12.878;2023-05-14T07:36:11;96308.25;;;15.76;39.26
44079;BME280;29744;49.078;12.878;2023-05-14T07:41:11;96297.09;;;15.77;39.29
44079;BME280;29744;49.078;12.878;2023-05-14T07:46:12;96284.84;;;15.80;39.29
44079;BME280;29744;49.078;12.878;2023-05-14T07:51:12;96274.84;;;15.81;39.36
44079;BME280;29744;49.078;12.878;2023-05-14T07:56:12;96272.59;;;15.83;39.53
44079;BME280;29744;49.078;12.878;2023-05-14T08:01:12;96283.06;;;15.84;39.24
44079;BME280;29744;49.078;12.878;2023-05-14T08:06:13;96276.53;;;15.85;39.43
44079;BME280;29744;49.078;12.878;2023-05-14T08:11:13;96260.31;;;15.85;39.37
44079;BME280;29744;49.078;12.878;2023-05-14T08:16:13;96265.03;;;15.88;38.96
44079;BME280;29744;49.078;12.878;2023-05-14T08:21:14;96255.81;;;15.89;39.21
44079;BME280;29744;49.078;12.878;2023-05-14T08:26:14;96248.16;;;15.91;39.52
44079;BME280;29744;49.078;12.878;2023-05-14T08:31:14;96247.81;;;15.93;39.14
44079;BME280;29744;49.078;12.878;2023-05-14T08:36:14;96238.91;;;15.92;39.23
44079;BME280;29744;49.078;12.878;2023-05-14T08:41:15;96233.16;;;15.94;38.94
44079;BME280;29744;49.078;12.878;2023-05-14T08:46:16;96234.72;;;15.95;38.90
44079;BME280;29744;49.078;12.878;2023-05-14T08:51:17;96222.78;;;15.96;38.96
44079;BME280;29744;49.078;12.878;2023-05-14T08:56:18;96229.00;;;15.96;39.16
44079;BME280;29744;49.078;12.878;2023-05-14T09:01:18;96227.88;;;15.97;39.19
44079;BME280;29744;49.078;12.878;2023-05-14T09:06:19;96223.25;;;15.98;39.51
44079;BME280;29744;49.078;12.878;2023-05-14T09:11:20;96221.78;;;16.00;39.01
44079;BME280;29744;49.078;12.878;2023-05-14T09:16:21;96214.44;;;16.01;39.22
44079;BME280;29744;49.078;12.878;2023-05-14T09:21:22;96210.63;;;16.02;39.36
44079;BME280;29744;49.078;12.878;2023-05-14T09:26:23;96197.88;;;16.02;38.86
44079;BME280;29744;49.078;12.878;2023-05-14T09:31:25;96195.97;;;16.03;38.85
44079;BME280;29744;49.078;12.878;2023-05-14T09:36:26;96194.06;;;16.03;38.93
44079;BME280;29744;49.078;12.878;2023-05-14T09:41:26;96181.31;;;16.04;38.81
44079;BME280;29744;49.078;12.878;2023-05-14T09:46:27;96173.19;;;16.04;39.15
44079;BME280;29744;49.078;12.878;2023-05-14T09:51:29;96167.44;;;16.05;38.99
44079;BME280;29744;49.078;12.878;2023-05-14T09:56:34;96163.97;;;16.05;38.81
44079;BME280;29744;49.078;12.878;2023-05-14T10:01:36;96162.03;;;16.05;38.75
44079;BME280;29744;49.078;12.878;2023-05-14T10:06:37;96166.31;;;16.06;39.06
44079;BME280;29744;49.078;12.878;2023-05-14T10:11:41;96159.00;;;16.07;39.11
44079;BME280;29744;49.078;12.878;2023-05-14T10:16:47;96153.59;;;16.07;39.00
44079;BME280;29744;49.078;12.878;2023-05-14T10:21:55;96163.28;;;16.08;39.19
44079;BME280;29744;49.078;12.878;2023-05-14T10:26:55;96157.53;;;16.09;39.17
44079;BME280;29744;49.078;12.878;2023-05-14T10:31:57;96153.69;;;16.10;39.17
44079;BME280;29744;49.078;12.878;2023-05-14T10:37:01;96152.56;;;16.12;38.70
44079;BME280;29744;49.078;12.878;2023-05-14T10:42:03;96146.03;;;16.13;38.71
44079;BME280;29744;49.078;12.878;2023-05-14T10:47:04;96143.31;;;16.13;38.73
44079;BME280;29744;49.078;12.878;2023-05-14T10:52:07;96142.19;;;16.14;38.86
44079;BME280;29744;49.078;12.878;2023-05-14T10:57:10;96134.88;;;16.14;38.89
44079;BME280;29744;49.078;12.878;2023-05-14T11:02:23;96132.50;;;16.13;39.23
44079;BME280;29744;49.078;12.878;2023-05-14T11:07:31;96131.38;;;16.14;39.06
44079;BME280;29744;49.078;12.878;2023-05-14T11:12:33;96125.63;;;16.15;39.14
44079;BME280;29744;49.078;12.878;2023-05-14T11:17:34;96110.19;;;16.16;38.86
44079;BME280;29744;49.078;12.878;2023-05-14T11:22:36;96099.81;;;16.18;39.27
44079;BME280;29744;49.078;12.878;2023-05-14T11:27:37;96099.81;;;16.18;38.99
44079;BME280;29744;49.078;12.878;2023-05-14T11:32:38;96102.50;;;16.18;38.72
44079;BME280;29744;49.078;12.878;2023-05-14T11:37:40;96097.88;;;16.18;38.81
44079;BME280;29744;49.078;12.878;2023-05-14T11:42:40;96101.38;;;16.19;39.05
44079;BME280;29744;49.078;12.878;2023-05-14T11:47:40;96105.66;;;16.20;38.88
44079;BME280;29744;49.078;12.878;2023-05-14T11:52:41;96107.56;;;16.19;39.24
44079;BME280;29744;49.078;12.878;2023-05-14T11:57:42;96108.72;;;16.18;38.92
44079;BME280;29744;49.078;12.878;2023-05-14T12:02:42;96111.41;;;16.18;39.00
44079;BME280;29744;49.078;12.878;2023-05-14T12:07:43;96120.66;;;16.17;38.95
44079;BME280;29744;49.078;12.878;2023-05-14T12:12:46;96127.19;;;16.16;38.94
44079;BME280;29744;49.078;12.878;2023-05-14T12:17:50;96151.88;;;16.15;38.96
44079;BME280;29744;49.078;12.878;2023-05-14T12:22:50;96157.97;;;16.12;38.75
44079;BME280;29744;49.078;12.878;2023-05-14T12:27:51;96161.81;;;16.10;38.83
44079;BME280;29744;49.078;12.878;2023-05-14T12:32:51;96149.41;;;16.09;39.06
44079;BME280;29744;49.078;12.878;2023-05-14T12:37:52;96145.13;;;16.08;39.30
44079;BME280;29744;49.078;12.878;2023-05-14T12:42:52;96144.34;;;16.08;38.85
44079;BME280;29744;49.078;12.878;2023-05-14T12:47:53;96144.69;;;16.06;39.13
44079;BME280;29744;49.078;12.878;2023-05-14T12:52:53;96150.88;;;16.07;38.99
44079;BME280;29744;49.078;12.878;2023-05-14T12:57:53;96148.53;;;16.05;39.04
44079;BME280;29744;49.078;12.878;2023-05-14T13:02:53;96151.22;;;16.05;39.30
44079;BME280;29744;49.078;12.878;2023-05-14T13:07:58;96138.03;;;16.04;39.08
44079;BME280;29744;49.078;12.878;2023-05-14T13:12:58;96133.41;;;16.04;38.94
44079;BME280;29744;49.078;12.878;2023-05-14T13:17:58;96134.53;;;16.03;39.20
44079;BME280;29744;49.078;12.878;2023-05-14T13:22:58;96127.56;;;16.02;38.88
44079;BME280;29744;49.078;12.878;2023-05-14T13:27:59;96122.94;;;16.03;39.41
44079;BME280;29744;49.078;12.878;2023-05-14T13:33:00;96112.13;;;16.03;39.28
44079;BME280;29744;49.078;12.878;2023-05-14T13:38:00;96114.81;;;16.03;39.19
44079;BME280;29744;49.078;12.878;2023-05-14T13:43:00;96117.19;;;16.04;39.26
44079;BME280;29744;49.078;12.878;2023-05-14T13:48:02;96100.16;;;16.04;39.26
44079;BME280;29744;49.078;12.878;2023-05-14T13:53:02;96105.59;;;16.04;39.12
44079;BME280;29744;49.078;12.878;2023-05-14T13:58:02;96102.88;;;16.04;39.08
44079;BME280;29744;49.078;12.878;2023-05-14T14:03:03;96110.66;;;16.05;39.33
44079;BME280;29744;49.078;12.878;2023-05-14T14:08:03;96105.25;;;16.05;39.31
44079;BME280;29744;49.078;12.878;2023-05-14T14:13:04;96099.84;;;16.05;39.37
44079;BME280;29744;49.078;12.878;2023-05-14T14:18:04;96099.50;;;16.07;39.01
44079;BME280;29744;49.078;12.878;2023-05-14T14:23:06;96089.47;;;16.07;39.52
44079;BME280;29744;49.078;12.878;2023-05-14T14:28:06;96092.16;;;16.07;39.11
44079;BME280;29744;49.078;12.878;2023-05-14T14:33:06;96090.59;;;16.06;39.58
44079;BME280;29744;49.078;12.878;2023-05-14T14:38:07;96087.09;;;16.06;39.36
44079;BME280;29744;49.078;12.878;2023-05-14T14:43:07;96088.22;;;16.05;39.30
44079;BME280;29744;49.078;12.878;2023-05-14T14:48:25;96088.56;;;16.03;39.40
44079;BME280;29744;49.078;12.878;2023-05-14T14:53:26;96083.16;;;16.03;39.38
44079;BME280;29744;49.078;12.878;2023-05-14T14:58:26;96076.63;;;16.04;39.52
44079;BME280;29744;49.078;12.878;2023-05-14T15:03:27;96082.47;;;16.06;39.04
44079;BME280;29744;49.078;12.878;2023-05-14T15:08:27;96082.13;;;16.08;39.33
44079;BME280;29744;49.078;12.878;2023-05-14T15:13:28;96077.50;;;16.08;39.68
44079;BME280;29744;49.078;12.878;2023-05-14T15:18:28;96082.56;;;16.10;39.45
44079;BME280;29744;49.078;12.878;2023-05-14T15:23:28;96079.88;;;16.10;39.44
44079;BME280;29744;49.078;12.878;2023-05-14T15:28:29;96081.78;;;16.09;39.51
44079;BME280;29744;49.078;12.878;2023-05-14T15:33:29;96069.06;;;16.10;39.48
44079;BME280;29744;49.078;12.878;2023-05-14T15:38:29;96065.56;;;16.09;39.35
44079;BME280;29744;49.078;12.878;2023-05-14T15:43:29;96064.44;;;16.10;39.48
44079;BME280;29744;49.078;12.878;2023-05-14T15:48:30;96061.38;;;16.12;39.46
44079;BME280;29744;49.078;12.878;2023-05-14T15:53:30;96062.97;;;16.13;39.41
44079;BME280;29744;49.078;12.878;2023-05-14T15:58:30;96062.97;;;16.13;39.08
44079;BME280;29744;49.078;12.878;2023-05-14T16:03:31;96052.94;;;16.14;39.63
44079;BME280;29744;49.078;12.878;2023-05-14T16:08:31;96049.88;;;16.15;39.52
44079;BME280;29744;49.078;12.878;2023-05-14T16:13:31;96049.53;;;16.17;39.54
44079;BME280;29744;49.078;12.878;2023-05-14T16:18:32;96046.81;;;16.17;39.49
44079;BME280;29744;49.078;12.878;2023-05-14T16:23:33;96042.22;;;16.17;39.68
44079;BME280;29744;49.078;12.878;2023-05-14T16:28:33;96034.09;;;16.17;39.13
44079;BME280;29744;49.078;12.878;2023-05-14T16:33:33;96040.28;;;16.18;39.15
44079;BME280;29744;49.078;12.878;2023-05-14T16:38:33;96028.69;;;16.17;39.31
44079;BME280;29744;49.078;12.878;2023-05-14T16:43:34;96044.13;;;16.17;39.66
44079;BME280;29744;49.078;12.878;2023-05-14T16:48:35;96039.06;;;16.15;39.14
44079;BME280;29744;49.078;12.878;2023-05-14T16:53:35;96040.19;;;16.14;39.42
44079;BME280;29744;49.078;12.878;2023-05-14T16:58:35;96035.91;;;16.13;39.54
44079;BME280;29744;49.078;12.878;2023-05-14T17:03:35;96036.25;;;16.12;39.24
44079;BME280;29744;49.078;12.878;2023-05-14T17:08:36;96037.03;;;16.12;39.47
44079;BME280;29744;49.078;12.878;2023-05-14T17:13:36;96036.25;;;16.12;39.55
44079;BME280;29744;49.078;12.878;2023-05-14T17:18:36;96036.25;;;16.12;39.51
44079;BME280;29744;49.078;12.878;2023-05-14T17:23:37;96036.25;;;16.12;39.38
44079;BME280;29744;49.078;12.878;2023-05-14T17:28:37;96039.75;;;16.12;39.62
44079;BME280;29744;49.078;12.878;2023-05-14T17:33:37;96034.34;;;16.12;39.69
44079;BME280;29744;49.078;12.878;2023-05-14T17:38:37;96038.94;;;16.12;39.68
44079;BME280;29744;49.078;12.878;2023-05-14T17:43:38;96039.28;;;16.10;39.35
44079;BME280;29744;49.078;12.878;2023-05-14T17:48:38;96040.88;;;16.11;39.77
44079;BME280;29744;49.078;12.878;2023-05-14T17:53:38;96035.47;;;16.11;39.56
44079;BME280;29744;49.078;12.878;2023-05-14T17:58:38;96036.25;;;16.12;39.44
44079;BME280;29744;49.078;12.878;2023-05-14T18:03:39;96045.50;;;16.10;39.29
44079;BME280;29744;49.078;12.878;2023-05-14T18:08:39;96047.41;;;16.10;39.35
44079;BME280;29744;49.078;12.878;2023-05-14T18:13:40;96037.72;;;16.09;39.64
44079;BME280;29744;49.078;12.878;2023-05-14T18:18:40;96035.81;;;16.09;39.63
44079;BME280;29744;49.078;12.878;2023-05-14T18:23:40;96038.50;;;16.09;39.48
44079;BME280;29744;49.078;12.878;2023-05-14T18:28:41;96039.63;;;16.08;39.35
44079;BME280;29744;49.078;12.878;2023-05-14T18:33:41;96036.16;;;16.08;39.73
44079;BME280;29744;49.078;12.878;2023-05-14T18:38:41;96030.75;;;16.08;39.77
44079;BME280;29744;49.078;12.878;2023-05-14T18:43:41;96033.78;;;16.06;39.76
44079;BME280;29744;49.078;12.878;2023-05-14T18:48:42;96039.19;;;16.06;39.73
44079;BME280;29744;49.078;12.878;2023-05-14T18:53:42;96044.59;;;16.06;39.60
44079;BME280;29744;49.078;12.878;2023-05-14T18:58:42;96041.91;;;16.06;39.66
44079;BME280;29744;49.078;12.878;2023-05-14T19:03:43;96032.22;;;16.05;39.50
44079;BME280;29744;49.078;12.878;2023-05-14T19:08:43;96034.13;;;16.05;39.60
44079;BME280;29744;49.078;12.878;2023-05-14T19:13:43;96034.91;;;16.05;39.63
44079;BME280;29744;49.078;12.878;2023-05-14T19:18:45;96025.22;;;16.04;39.65
44079;BME280;29744;49.078;12.878;2023-05-14T19:23:46;96027.94;;;16.04;39.73
44079;BME280;29744;49.078;12.878;2023-05-14T19:28:46;96032.56;;;16.04;39.61
44079;BME280;29744;49.078;12.878;2023-05-14T19:33:46;96024.44;;;16.04;39.41
44079;BME280;29744;49.078;12.878;2023-05-14T19:38:47;96027.16;;;16.04;39.87
44079;BME280;29744;49.078;12.878;2023-05-14T19:43:47;96020.94;;;16.03;39.73
44079;BME280;29744;49.078;12.878;2023-05-14T19:48:47;96023.66;;;16.03;39.88
44079;BME280;29744;49.078;12.878;2023-05-14T19:53:48;96034.47;;;16.03;39.51
44079;BME280;29744;49.078;12.878;2023-05-14T19:58:48;96028.28;;;16.03;39.37
44079;BME280;29744;49.078;12.878;2023-05-14T20:03:48;96022.06;;;16.02;39.52
44079;BME280;29744;49.078;12.878;2023-05-14T20:08:48;96030.97;;;16.03;39.72
44079;BME280;29744;49.078;12.878;2023-05-14T20:13:50;96027.50;;;16.02;39.75
44079;BME280;29744;49.078;12.878;2023-05-14T20:18:52;96030.19;;;16.02;39.35
44079;BME280;29744;49.078;12.878;2023-05-14T20:23:52;96025.13;;;16.01;39.82
44079;BME280;29744;49.078;12.878;2023-05-14T20:28:53;96014.22;;;15.97;39.61
44079;BME280;29744;49.078;12.878;2023-05-14T20:33:54;96012.63;;;15.96;39.81
44079;BME280;29744;49.078;12.878;2023-05-14T20:38:55;96017.59;;;15.94;39.63
44079;BME280;29744;49.078;12.878;2023-05-14T20:43:55;96017.16;;;15.92;39.45
44079;BME280;29744;49.078;12.878;2023-05-14T20:48:55;96017.50;;;15.91;39.68
44079;BME280;29744;49.078;12.878;2023-05-14T20:53:56;96016.25;;;15.88;39.58
44079;BME280;29744;49.078;12.878;2023-05-14T20:58:56;96007.69;;;15.86;40.16
44079;BME280;29744;49.078;12.878;2023-05-14T21:03:56;95999.94;;;15.85;40.08
44079;BME280;29744;49.078;12.878;2023-05-14T21:08:56;96003.75;;;15.84;39.99
44079;BME280;29744;49.078;12.878;2023-05-14T21:13:57;96004.44;;;15.81;39.62
44079;BME280;29744;49.078;12.878;2023-05-14T21:18:57;95997.47;;;15.80;39.71
44079;BME280;29744;49.078;12.878;2023-05-14T21:23:57;95994.75;;;15.80;39.84
44079;BME280;29744;49.078;12.878;2023-05-14T21:28:58;95998.91;;;15.77;40.19
44079;BME280;29744;49.078;12.878;2023-05-14T21:33:59;96000.03;;;15.76;39.89
44079;BME280;29744;49.078;12.878;2023-05-14T21:38:59;95998.47;;;15.75;39.92
44079;BME280;29744;49.078;12.878;2023-05-14T21:43:59;96003.09;;;15.74;39.88
44079;BME280;29744;49.078;12.878;2023-05-14T21:49:00;96002.28;;;15.74;40.01
44079;BME280;29744;49.078;12.878;2023-05-14T21:54:00;95996.44;;;15.72;40.10
44079;BME280;29744;49.078;12.878;2023-05-14T21:59:00;95988.66;;;15.70;39.89
44079;BME280;29744;49.078;12.878;2023-05-14T22:04:00;95985.97;;;15.70;39.72
44079;BME280;29744;49.078;12.878;2023-05-14T22:09:01;95986.31;;;15.69;40.13
44079;BME280;29744;49.078;12.878;2023-05-14T22:14:01;95974.72;;;15.68;40.11
44079;BME280;29744;49.078;12.878;2023-05-14T22:19:01;95972.00;;;15.68;39.80
44079;BME280;29744;49.078;12.878;2023-05-14T22:24:02;95966.94;;;15.67;40.21
44079;BME280;29744;49.078;12.878;2023-05-14T22:29:02;95968.84;;;15.66;39.98
44079;BME280;29744;49.078;12.878;2023-05-14T22:34:02;95968.84;;;15.66;40.14
44079;BME280;29744;49.078;12.878;2023-05-14T22:39:03;95963.78;;;15.65;40.33
44079;BME280;29744;49.078;12.878;2023-05-14T22:44:03;95959.53;;;15.64;40.17
44079;BME280;29744;49.078;12.878;2023-05-14T22:49:03;95959.53;;;15.64;40.35
44079;BME280;29744;49.078;12.878;2023-05-14T22:54:03;95947.13;;;15.63;40.40
44079;BME280;29744;49.078;12.878;2023-05-14T22:59:04;95945.56;;;15.62;40.35
44079;BME280;29744;49.078;12.878;2023-05-14T23:04:04;95942.06;;;15.61;40.41
44079;BME280;29744;49.078;12.878;2023-05-14T23:09:04;95933.97;;;15.61;40.28
44079;BME280;29744;49.078;12.878;2023-05-14T23:14:04;95938.56;;;15.61;40.19
44079;BME280;29744;49.078;12.878;2023-05-14T23:19:05;95923.50;;;15.60;40.28
44079;BME280;29744;49.078;12.878;2023-05-14T23:24:05;95920.00;;;15.59;40.15
44079;BME280;29744;49.078;12.878;2023-05-14T23:29:06;95909.53;;;15.58;40.17
44079;BME280;29744;49.078;12.878;2023-05-14T23:34:06;95900.28;;;15.59;40.42
44079;BME280;29744;49.078;12.878;2023-05-14T23:39:06;95901.09;;;15.59;40.17
44079;BME280;29744;49.078;12.878;2023-05-14T23:44:06;95889.47;;;15.59;40.03
44079;BME280;29744;49.078;12.878;2023-05-14T23:49:07;95887.91;;;15.58;40.19
44079;BME280;29744;49.078;12.878;2023-05-14T23:54:07;95890.63;;;15.58;40.43
44079;BME280;29744;49.078;12.878;2023-05-14T23:59:07;95882.84;;;15.56;39.97
